Weather observations for the past three days for
Carlsbad, McClellan-Palomar Airport
Metric (Imperial)
Date Time (pdt) Wind (kph) Vis. (km) Weather Sky Cond. Temperature (ºC) Relative Humidity Wind Chill (°C) Heat Index (°C) Pressure Precipitation (cm)
Air Dwpt 6 hour altimeter (cm) sea level (mb) 1 hr 3 hr 6 hr
Max. Min.
31 20:53 S 6 16.09 Fair CLR 21.1 17.8 82% 76.02 1013.3
31 18:53 W 9 16.09 Fair CLR 22.2 18.3 79% 75.92 1011.9
31 17:53 Vrbl 9 16.09 Fair CLR 22.8 17.8 74% 75.95 1012.3
31 16:53 SW 15 16.09 Fair CLR 23.3 18.3 25 23.3 74% 75.95 1012.3
31 15:53 SW 15 16.09 Fair CLR 24.4 18.9 72% 25 75.97 1012.4
31 13:53 W 13 16.09 Fair CLR 24.4 18.3 69% 25 76.02 1013.2
31 12:53 W 13 16.09 Fair CLR 24.4 18.3 69% 25 76.05 1013.4
31 11:53 W 13 16.09 Fair CLR 24.4 18.3 69% 25 76.05 1013.6
31 10:53 W 17 16.09 Fair CLR 24.4 18.3 24.4 21.7 69% 25 76.05 1013.5
31 09:53 Vrbl 7 16.09 Fair CLR 24.4 17.8 67% 25 76.02 1013.2
31 08:53 E 7 16.09 Mostly Cloudy BKN017 22.8 17.8 74% 76.02 1013.2
31 07:53 S 6 16.09 Overcast OVC017 21.7 17.8 79% 76 1012.9
31 06:53 Calm 16.09 Mostly Cloudy BKN017 21.7 17.8 79% 75.95 1012.2
31 05:53 SE 6 16.09 Overcast OVC016 21.7 17.8 79% 75.92 1011.9
31 04:53 S 6 16.09 Overcast OVC014 21.7 17.8 22.2 21.1 79% 75.92 1011.8
31 03:53 SW 6 16.09 Overcast OVC013 21.7 18.3 81% 75.92 1011.9
31 02:53 SE 6 16.09 Overcast OVC012 21.7 18.9 84% 75.92 1011.9
31 01:53 S 6 16.09 Overcast OVC014 21.7 18.9 84% 75.95 1011.9
31 00:53 S 7 16.09 Overcast OVC012 21.7 18.9 84% 75.95 1012.1
30 23:53 S 6 16.09 Overcast OVC010 21.7 18.9 84% 75.95 1012.0
30 22:53 S 6 16.09 Overcast OVC010 22.2 19.4 25 22.2 84% 75.92 1011.9
30 21:53 S 6 16.09 Mostly Cloudy BKN010 22.2 19.4 84% 75.92 1011.8
30 20:53 W 9 16.09 Partly Cloudy SCT012 22.8 19.4 81% 75.9 1011.5
30 19:53 S 7 16.09 Partly Cloudy SCT014 23.3 19.4 79% 75.84 1010.9
30 18:53 SW 9 16.09 Partly Cloudy SCT012 23.3 20 82% 75.82 1010.4
30 17:53 SW 13 16.09 Fair CLR 24.4 19.4 74% 25 75.82 1010.6
30 16:53 SW 15 16.09 Fair CLR 25 19.4 27.2 25 71% 26 75.82 1010.5
30 15:53 W 7 16.09 Fair CLR 25 19.4 71% 26 75.84 1010.7
30 14:53 SW 17 16.09 Fair CLR 25.6 19.4 69% 27 75.87 1011.1
30 13:53 SW 19 16.09 Fair CLR 26.1 18.9 65% 27 75.92 1011.7
30 12:53 S 13 16.09 Fair CLR 26.7 19.4 64% 28 75.92 1011.7
30 11:53 SW 19 16.09 Fair CLR 26.1 19.4 67% 27 75.95 1012.2
30 10:53 W 13 16.09 Fair CLR 26.1 19.4 26.1 22.8 67% 27 75.95 1012.2
30 09:53 W 9 16.09 Fair CLR 25.6 20 71% 27 75.92 1011.7
30 08:53 SE 6 14.48 Fair CLR 24.4 19.4 74% 25 75.92 1011.7
30 07:53 SE 9 14.48 Overcast OVC012 23.3 19.4 79% 75.92 1011.8
30 06:53 Vrbl 6 14.48 Overcast OVC011 22.8 20 84% 75.9 1011.5
30 05:53 S 7 16.09 Overcast OVC010 22.8 20 84% 75.87 1011.1
30 04:53 SE 11 14.48 Overcast OVC008 22.8 20 23.9 22.2 84% 75.84 1010.8
30 03:53 SE 7 14.48 Overcast OVC008 22.8 20.6 87% 75.84 1010.9
30 02:53 SE 7 11.27 Overcast OVC005 22.8 21.1 90% 75.82 1010.6
30 01:53 SE 6 12.87 Overcast OVC006 22.8 21.1 90% 75.84 1010.7
30 00:53 SW 6 12.87 Overcast OVC006 23.3 21.1 88% 75.84 1010.9
29 23:53 S 6 14.48 Overcast OVC008 23.3 21.1 88% 75.87 1011.0
29 22:53 SE 6 16.09 Overcast OVC007 23.9 21.7 27.2 23.9 88% 24 75.84 1010.9
29 21:53 Calm 16.09 Overcast OVC007 23.9 21.7 88% 24 75.87 1010.9
29 20:53 W 9 14.48 Overcast OVC007 23.9 21.7 88% 24 75.82 1010.6
29 19:53 SW 9 16.09 Partly Cloudy SCT007 23.9 21.7 88% 24 75.77 1009.7
29 18:53 W 9 16.09 Fair CLR 25 21.7 82% 26 75.77 1009.7
29 17:53 SW 11 16.09 Fair CLR 26.7 21.1 71% 28 75.77 1009.8
29 16:53 SW 13 16.09 Fair CLR 27.2 21.7 28.3 26.7 72% 29 75.77 1009.7
29 15:53 W 13 16.09 Fair CLR 27.2 21.7 72% 29 75.79 1010.0
29 14:53 W 13 16.09 Fair CLR 27.8 20.6 65% 30 75.84 1010.7
29 13:53 SW 13 16.09 Fair CLR 27.8 21.1 67% 30 75.87 1011.0
29 12:53 W 17 16.09 Fair CLR 27.8 21.7 69% 30 75.9 1011.4
29 11:53 SW 13 16.09 Fair CLR 27.2 21.7 72% 29 75.92 1011.8
29 10:53 SW 15 16.09 Fair CLR 27.8 21.7 29.4 22.2 69% 30 75.95 1012.2
29 09:53 Calm 16.09 Fair CLR 29.4 18.3 51% 30 75.95 1012.0
29 08:53 Calm 16.09 Fair CLR 26.7 20.6 69% 28 75.95 1012.0
29 07:53 Calm 16.09 Fair CLR 23.9 21.7 88% 24 75.92 1011.7
29 06:53 E 6 12.87 A Few Clouds FEW001 22.2 21.7 97% 75.87 1011.2
29 05:53 Calm 1.21 Fog/Mist VV002 22.2 21.7 97% 75.87 1011.1
29 04:53 Calm 14.48 Mostly Cloudy BKN003 22.8 21.7 24.4 22.8 94% 75.87 1011.1
29 03:53 S 6 6.44 Fog/Mist OVC003 22.8 21.7 94% 75.87 1011.0
29 02:53 SW 6 14.48 Overcast OVC004 23.3 22.2 94% 75.87 1011.0
29 01:53 W 7 16.09 Fair CLR 23.9 22.2 90% 23 75.84 1010.6
29 00:53 Calm 16.09 Fair CLR 23.9 21.7 88% 24 75.84 1010.7
28 23:53 Calm 16.09 Fair CLR 23.9 21.7 88% 24 75.84 1010.8
28 22:53 Calm 16.09 Fair CLR 24.4 21.1 27.8 24.4 82% 25 75.84 1010.8
28 21:53 E 6 16.09 Fair CLR 25 21.1 79% 26 75.84 1010.7
Date Time (pdt) Wind (kph) Vis. (km) Weather Sky Cond. Air Dwpt Max. Min. Relative Humidity Wind Chill (°C) Heat Index (°C) altimeter (cm) sea level (mb) 1 hr 3 hr 6 hr
6 hour
Temperature (ºC) Pressure Precipitation (cm)